Terminal Aerodrome Forecast
Issued by NWS

Home | Current Version | Previous Version | Graphics & Text | Print | Product List | Glossary On
Versions: 1 2 3 4 5 6 7 8 9 10 11 12 13 14 15 16 17 18 19 20 21 22 23 24
537
FTUS43 KUNR 191309 AAA
TAFGCC
TAF AMD
KGCC 191309Z 1913/2012 33009KT P6SM BKN250
     FM191500 23012KT P6SM BKN200
     FM192300 27006KT P6SM BKN120
     FM200500 32009KT P6SM OVC035=

USA.gov is the U.S. government's official web portal to all federal, state and local government web resources and services.